Saint Bonnet de Bellac- Haute Vienne - France
Donnes mto: vendredi, 06/01/2012
Date Horaire Temp. E. Hum. E. P.atmo. Pluie Vent Direction Direction Ensoleilleme Solaire P. de rose Temp au vent Rafales
06/01/2012 00:00 6,4 C 86 % 1020,6 hPa 0,0 mm 2,5 km/h (1 Bft) O-NO 292 0 min 0 W/m 4,2 C 6,4 C 11,9 km/h (2 Bft)
06/01/2012 00:10 6,3 C 86 % 1020,8 hPa 0,0 mm 3,6 km/h (1 Bft) O 270 0 min 0 W/m 4,1 C 6,3 C 13,7 km/h (3 Bft)
06/01/2012 00:20 6,2 C 87 % 1020,7 hPa 0,0 mm 2,5 km/h (1 Bft) NO 315 0 min 0 W/m 4,2 C 6,2 C 7,9 km/h (2 Bft)
06/01/2012 00:30 6,1 C 87 % 1020,8 hPa 0,0 mm 4,7 km/h (1 Bft) O-NO 292 0 min 0 W/m 4,1 C 5,4 C 6,8 km/h (2 Bft)
06/01/2012 00:40 6,0 C 88 % 1020,8 hPa 0,0 mm 6,5 km/h (2 Bft) O 270 0 min 0 W/m 4,2 C 4,7 C 14,0 km/h (3 Bft)
06/01/2012 00:50 5,9 C 88 % 1020,8 hPa 0,0 mm 7,2 km/h (2 Bft) O 270 0 min 0 W/m 4,1 C 4,4 C 10,4 km/h (2 Bft)
06/01/2012 01:00 5,8 C 88 % 1020,8 hPa 0,0 mm 5,8 km/h (2 Bft) O 270 0 min 0 W/m 4,0 C 4,7 C 15,1 km/h (3 Bft)
06/01/2012 01:10 5,8 C 88 % 1021,0 hPa 0,0 mm 2,9 km/h (1 Bft) O-NO 292 0 min 0 W/m 4,0 C 5,8 C 4,3 km/h (1 Bft)
06/01/2012 01:20 5,7 C 88 % 1021,1 hPa 0,0 mm 1,8 km/h (1 Bft) O 270 0 min 0 W/m 3,9 C 5,7 C 1,8 km/h (1 Bft)
06/01/2012 01:30 5,5 C 89 % 1021,1 hPa 0,0 mm 4,3 km/h (1 Bft) O 270 0 min 0 W/m 3,8 C 5,5 C 11,2 km/h (2 Bft)
06/01/2012 01:40 5,5 C 89 % 1021,3 hPa 0,0 mm 3,2 km/h (1 Bft) O-NO 292 0 min 0 W/m 3,8 C 5,5 C 7,9 km/h (2 Bft)
06/01/2012 01:50 5,4 C 89 % 1021,3 hPa 0,0 mm 4,0 km/h (1 Bft) NO 315 0 min 0 W/m 3,7 C 5,4 C 9,7 km/h (2 Bft)
06/01/2012 02:02 5,3 C 88 % 1021,4 hPa 0,0 mm 1,8 km/h (1 Bft) O-NO 292 0 min 0 W/m 3,5 C 5,3 C 3,6 km/h (1 Bft)
06/01/2012 02:10 5,1 C 89 % 1021,3 hPa 0,0 mm 4,0 km/h (1 Bft) O-SO 247 0 min 0 W/m 3,4 C 5,1 C 12,2 km/h (2 Bft)
06/01/2012 02:20 4,9 C 89 % 1021,3 hPa 0,0 mm 3,2 km/h (1 Bft) O-SO 247 0 min 0 W/m 3,2 C 4,9 C 14,0 km/h (3 Bft)
06/01/2012 02:30 4,9 C 89 % 1021,4 hPa 0,0 mm 1,4 km/h (1 Bft) N-NO 337 0 min 0 W/m 3,2 C 4,9 C 1,4 km/h (1 Bft)
06/01/2012 02:40 4,8 C 90 % 1021,6 hPa 0,0 mm 2,9 km/h (1 Bft) O-NO 292 0 min 0 W/m 3,3 C 4,8 C 3,2 km/h (1 Bft)
06/01/2012 02:50 4,8 C 90 % 1021,6 hPa 0,0 mm 0,7 km/h (0 Bft) O 270 0 min 0 W/m 3,3 C 4,8 C 4,0 km/h (1 Bft)
06/01/2012 03:00 4,6 C 90 % 1021,8 hPa 0,0 mm 1,8 km/h (1 Bft) O 270 0 min 0 W/m 3,1 C 4,6 C 6,5 km/h (2 Bft)
06/01/2012 03:10 4,4 C 90 % 1022,0 hPa 0,0 mm 0,0 km/h (0 Bft) O-SO 247 0 min 0 W/m 2,9 C 4,4 C 0,0 km/h (0 Bft)
06/01/2012 03:20 4,3 C 90 % 1022,0 hPa 0,0 mm 1,4 km/h (1 Bft) O-SO 247 0 min 0 W/m 2,8 C 4,3 C 5,8 km/h (2 Bft)
06/01/2012 03:30 4,2 C 90 % 1022,0 hPa 0,0 mm 0,0 km/h (0 Bft) O-NO 292 0 min 0 W/m 2,7 C 4,2 C 0,0 km/h (0 Bft)
06/01/2012 03:40 3,9 C 90 % 1022,2 hPa 0,0 mm 0,0 km/h (0 Bft) O-NO 292 0 min 0 W/m 2,4 C 3,9 C 0,0 km/h (0 Bft)
06/01/2012 03:50 3,8 C 90 % 1022,2 hPa 0,0 mm 0,0 km/h (0 Bft) S 180 0 min 0 W/m 2,3 C 3,8 C 0,0 km/h (0 Bft)
06/01/2012 04:00 3,6 C 91 % 1022,3 hPa 0,0 mm 0,0 km/h (0 Bft) O-NO 292 0 min 0 W/m 2,3 C 3,6 C 0,0 km/h (0 Bft)
06/01/2012 04:10 3,4 C 91 % 1022,6 hPa 0,0 mm 0,0 km/h (0 Bft) O-NO 292 0 min 0 W/m 2,1 C 3,4 C 0,0 km/h (0 Bft)
06/01/2012 04:20 3,3 C 91 % 1022,6 hPa 0,0 mm 0,0 km/h (0 Bft) O-NO 292 0 min 0 W/m 2,0 C 3,3 C 0,0 km/h (0 Bft)
06/01/2012 04:30 3,2 C 91 % 1022,8 hPa 0,0 mm 0,7 km/h (0 Bft) NO 315 0 min 0 W/m 1,9 C 3,2 C 4,0 km/h (1 Bft)
06/01/2012 04:40 3,1 C 91 % 1022,8 hPa 0,0 mm 0,7 km/h (0 Bft) NO 315 0 min 0 W/m 1,8 C 3,1 C 3,6 km/h (1 Bft)
06/01/2012 04:50 3,1 C 91 % 1022,8 hPa 0,0 mm 6,5 km/h (2 Bft) O 270 0 min 0 W/m 1,8 C 1,4 C 12,2 km/h (2 Bft)
06/01/2012 05:00 3,3 C 92 % 1022,9 hPa 0,0 mm 1,8 km/h (1 Bft) N-NO 337 0 min 0 W/m 2,1 C 3,3 C 8,3 km/h (2 Bft)
06/01/2012 05:10 3,6 C 92 % 1023,0 hPa 0,0 mm 4,3 km/h (1 Bft) N-NO 337 0 min 0 W/m 2,4 C 3,6 C 9,0 km/h (2 Bft)
06/01/2012 05:20 3,8 C 92 % 1023,1 hPa 0,0 mm 2,9 km/h (1 Bft) NO 315 0 min 0 W/m 2,6 C 3,8 C 4,0 km/h (1 Bft)
06/01/2012 05:30 4,1 C 92 % 1023,2 hPa 0,0 mm 7,2 km/h (2 Bft) N-NO 337 0 min 0 W/m 2,9 C 2,3 C 7,2 km/h (2 Bft)
06/01/2012 05:40 4,3 C 93 % 1023,2 hPa 0,0 mm 1,1 km/h (1 Bft) O-NO 292 0 min 0 W/m 3,3 C 4,3 C 5,4 km/h (2 Bft)
06/01/2012 05:50 4,3 C 92 % 1023,2 hPa 0,0 mm 7,9 km/h (2 Bft) O-NO 292 0 min 0 W/m 3,1 C 2,3 C 11,9 km/h (2 Bft)
06/01/2012 06:00 4,3 C 92 % 1023,4 hPa 0,0 mm 4,7 km/h (1 Bft) N-NO 337 0 min 0 W/m 3,1 C 3,4 C 6,1 km/h (2 Bft)
06/01/2012 06:10 4,3 C 92 % 1023,5 hPa 0,0 mm 7,9 km/h (2 Bft) NO 315 0 min 0 W/m 3,1 C 2,3 C 14,8 km/h (3 Bft)
06/01/2012 06:20 4,2 C 92 % 1023,7 hPa 0,0 mm 4,0 km/h (1 Bft) N-NO 337 0 min 0 W/m 3,0 C 4,2 C 6,8 km/h (2 Bft)
06/01/2012 06:30 4,3 C 92 % 1023,8 hPa 0,0 mm 1,4 km/h (1 Bft) N 360 0 min 0 W/m 3,1 C 4,3 C 3,6 km/h (1 Bft)
06/01/2012 06:40 4,3 C 92 % 1024,1 hPa 0,0 mm 5,4 km/h (2 Bft) N-NO 337 0 min 0 W/m 3,1 C 3,1 C 5,4 km/h (2 Bft)
06/01/2012 06:50 4,2 C 92 % 1024,1 hPa 0,0 mm 1,1 km/h (1 Bft) N-NO 337 0 min 0 W/m 3,0 C 4,2 C 3,2 km/h (1 Bft)
06/01/2012 07:00 4,1 C 92 % 1024,3 hPa 0,0 mm 0,0 km/h (0 Bft) NO 315 0 min 0 W/m 2,9 C 4,1 C 0,0 km/h (0 Bft)
06/01/2012 07:10 3,9 C 92 % 1024,4 hPa 0,0 mm 4,3 km/h (1 Bft) NO 315 0 min 0 W/m 2,7 C 3,9 C 7,6 km/h (2 Bft)
06/01/2012 07:20 3,8 C 92 % 1024,4 hPa 0,0 mm 1,4 km/h (1 Bft) O-NO 292 0 min 0 W/m 2,6 C 3,8 C 4,3 km/h (1 Bft)
06/01/2012 07:30 3,7 C 92 % 1024,5 hPa 0,0 mm 1,8 km/h (1 Bft) NO 315 0 min 0 W/m 2,5 C 3,7 C 4,0 km/h (1 Bft)
06/01/2012 07:40 3,5 C 93 % 1024,7 hPa 0,0 mm 1,4 km/h (1 Bft) N-NO 337 0 min 0 W/m 2,5 C 3,5 C 4,0 km/h (1 Bft)
06/01/2012 07:50 3,4 C 93 % 1024,9 hPa 0,0 mm 0,4 km/h (0 Bft) NO 315 0 min 0 W/m 2,4 C 3,4 C 4,0 km/h (1 Bft)
06/01/2012 08:00 3,3 C 93 % 1025,2 hPa 0,0 mm 0,0 km/h (0 Bft) O 270 0 min 0 W/m 2,3 C 3,3 C 0,0 km/h (0 Bft)
06/01/2012 08:10 3,2 C 93 % 1025,2 hPa 0,0 mm 0,0 km/h (0 Bft) O 270 0 min 0 W/m 2,2 C 3,2 C 0,0 km/h (0 Bft)
06/01/2012 08:20 3,1 C 93 % 1025,1 hPa 0,0 mm 1,1 km/h (1 Bft) O 270 0 min 0 W/m 2,1 C 3,1 C 1,1 km/h (1 Bft)
06/01/2012 08:30 3,1 C 93 % 1025,2 hPa 0,0 mm 0,7 km/h (0 Bft) NO 315 0 min 0 W/m 2,1 C 3,1 C 4,0 km/h (1 Bft)
06/01/2012 08:40 2,9 C 93 % 1025,5 hPa 0,0 mm 0,0 km/h (0 Bft) N-NO 337 0 min 0 W/m 1,9 C 2,9 C 0,0 km/h (0 Bft)
06/01/2012 08:50 2,9 C 93 % 1025,8 hPa 0,0 mm 0,0 km/h (0 Bft) O-SO 247 2 min 0 W/m 1,9 C 2,9 C 0,0 km/h (0 Bft)
06/01/2012 09:00 2,8 C 93 % 1025,7 hPa 0,0 mm 0,0 km/h (0 Bft) O-NO 292 2 min 0 W/m 1,8 C 2,8 C 0,0 km/h (0 Bft)
06/01/2012 09:10 2,8 C 93 % 1026,0 hPa 0,0 mm 0,0 km/h (0 Bft) O-NO 292 2 min 0 W/m 1,8 C 2,8 C 0,0 km/h (0 Bft)
06/01/2012 09:20 2,9 C 94 % 1026,1 hPa 0,0 mm 0,0 km/h (0 Bft) SO 225 2 min 0 W/m 2,0 C 2,9 C 0,0 km/h (0 Bft)
06/01/2012 09:30 2,9 C 94 % 1026,2 hPa 0,0 mm 1,1 km/h (1 Bft) S-SO 202 2 min 0 W/m 2,0 C 2,9 C 1,1 km/h (1 Bft)
06/01/2012 09:40 3,4 C 94 % 1026,6 hPa 0,0 mm 0,0 km/h (0 Bft) O-SO 247 2 min 0 W/m 2,5 C 3,4 C 0,0 km/h (0 Bft)
06/01/2012 09:50 4,1 C 95 % 1026,6 hPa 0,0 mm 2,2 km/h (1 Bft) N-NO 337 2 min 0 W/m 3,4 C 4,1 C 4,3 km/h (1 Bft)
06/01/2012 10:00 4,3 C 94 % 1026,9 hPa 0,0 mm 0,0 km/h (0 Bft) O-NO 292 2 min 0 W/m 3,4 C 4,3 C 0,0 km/h (0 Bft)
06/01/2012 10:10 4,9 C 94 % 1027,1 hPa 0,0 mm 0,4 km/h (0 Bft) N-NO 337 2 min 0 W/m 4,0 C 4,9 C 0,4 km/h (0 Bft)
06/01/2012 10:20 5,5 C 94 % 1027,1 hPa 0,0 mm 7,6 km/h (2 Bft) O-NO 292 2 min 0 W/m 4,6 C 3,8 C 9,4 km/h (2 Bft)
06/01/2012 10:30 6,2 C 93 % 1027,2 hPa 0,0 mm 1,1 km/h (1 Bft) NO 315 2 min 0 W/m 5,2 C 6,2 C 1,1 km/h (1 Bft)
06/01/2012 10:40 6,8 C 91 % 1027,5 hPa 0,0 mm 1,1 km/h (1 Bft) N-NO 337 2 min 0 W/m 5,4 C 6,8 C 4,7 km/h (1 Bft)
06/01/2012 10:50 7,3 C 89 % 1027,7 hPa 0,0 mm 6,5 km/h (2 Bft) N-NO 337 2 min 0 W/m 5,6 C 6,2 C 10,1 km/h (2 Bft)
06/01/2012 11:00 7,8 C 89 % 1028,1 hPa 0,0 mm 8,3 km/h (2 Bft) NO 315 2 min 0 W/m 6,1 C 6,4 C 15,5 km/h (3 Bft)
06/01/2012 11:10 8,1 C 87 % 1028,2 hPa 0,0 mm 11,5 km/h (2 Bft) NO 315 2 min 0 W/m 6,1 C 6,1 C 14,4 km/h (3 Bft)
06/01/2012 11:20 8,5 C 86 % 1028,3 hPa 0,0 mm 10,4 km/h (2 Bft) N-NO 337 2 min 0 W/m 6,3 C 6,8 C 14,8 km/h (3 Bft)
06/01/2012 11:30 8,8 C 85 % 1028,8 hPa 0,0 mm 0,0 km/h (0 Bft) NO 315 2 min 0 W/m 6,4 C 8,8 C 2,9 km/h (1 Bft)
06/01/2012 11:40 9,3 C 83 % 1028,7 hPa 0,0 mm 9,0 km/h (2 Bft) NO 315 2 min 0 W/m 6,6 C 8,0 C 15,1 km/h (3 Bft)
06/01/2012 11:50 9,4 C 82 % 1028,7 hPa 0,0 mm 3,6 km/h (1 Bft) NO 315 2 min 0 W/m 6,5 C 9,4 C 4,0 km/h (1 Bft)
06/01/2012 12:00 9,4 C 81 % 1028,6 hPa 0,0 mm 7,9 km/h (2 Bft) NO 315 2 min 0 W/m 6,3 C 8,3 C 13,3 km/h (3 Bft)
06/01/2012 12:10 9,4 C 81 % 1028,7 hPa 0,0 mm 8,6 km/h (2 Bft) NO 315 2 min 0 W/m 6,3 C 8,2 C 13,7 km/h (3 Bft)
06/01/2012 12:20 9,7 C 80 % 1028,7 hPa 0,0 mm 6,5 km/h (2 Bft) N 360 2 min 0 W/m 6,4 C 9,0 C 12,6 km/h (3 Bft)
06/01/2012 12:30 9,7 C 79 % 1028,7 hPa 0,0 mm 6,5 km/h (2 Bft) N-NO 337 2 min 0 W/m 6,2 C 9,0 C 12,6 km/h (3 Bft)
06/01/2012 12:40 9,6 C 79 % 1028,5 hPa 0,0 mm 1,8 km/h (1 Bft) N 360 2 min 0 W/m 6,1 C 9,6 C 13,0 km/h (3 Bft)
06/01/2012 12:50 9,6 C 78 % 1028,2 hPa 0,0 mm 9,0 km/h (2 Bft) O 270 2 min 0 W/m 6,0 C 8,3 C 11,5 km/h (2 Bft)
06/01/2012 13:00 10,1 C 78 % 1028,5 hPa 0,0 mm 4,7 km/h (1 Bft) N-NE 22 2 min 0 W/m 6,4 C 10,1 C 7,2 km/h (2 Bft)
06/01/2012 13:10 10,3 C 77 % 1028,3 hPa 0,0 mm 9,7 km/h (2 Bft) N-NE 22 2 min 0 W/m 6,4 C 10,3 C 10,1 km/h (2 Bft)
06/01/2012 13:20 9,8 C 77 % 1028,2 hPa 0,0 mm 0,4 km/h (0 Bft) N 360 2 min 0 W/m 6,0 C 9,8 C 0,4 km/h (0 Bft)
06/01/2012 13:30 9,5 C 77 % 1027,9 hPa 0,0 mm 4,3 km/h (1 Bft) NO 315 2 min 0 W/m 5,7 C 9,5 C 7,9 km/h (2 Bft)
06/01/2012 13:40 9,8 C 77 % 1028,1 hPa 0,0 mm 4,7 km/h (1 Bft) NO 315 2 min 0 W/m 6,0 C 9,6 C 6,8 km/h (2 Bft)
06/01/2012 13:50 9,8 C 77 % 1027,9 hPa 0,0 mm 1,1 km/h (1 Bft) N 360 2 min 0 W/m 6,0 C 9,8 C 1,1 km/h (1 Bft)
06/01/2012 14:00 9,7 C 75 % 1028,3 hPa 0,0 mm 4,3 km/h (1 Bft) NO 315 2 min 0 W/m 5,5 C 9,7 C 8,3 km/h (2 Bft)
06/01/2012 14:10 9,8 C 76 % 1028,2 hPa 0,0 mm 2,9 km/h (1 Bft) N-NE 22 2 min 0 W/m 5,8 C 9,8 C 7,9 km/h (2 Bft)
06/01/2012 14:20 10,0 C 75 % 1028,0 hPa 0,0 mm 0,4 km/h (0 Bft) N-NO 337 2 min 0 W/m 5,8 C 10,0 C 0,4 km/h (0 Bft)
06/01/2012 14:30 9,7 C 75 % 1028,0 hPa 0,0 mm 1,1 km/h (1 Bft) N-NO 337 2 min 0 W/m 5,5 C 9,7 C 3,6 km/h (1 Bft)
06/01/2012 14:40 9,6 C 75 % 1027,6 hPa 0,0 mm 2,5 km/h (1 Bft) N-NE 22 2 min 0 W/m 5,4 C 9,6 C 4,0 km/h (1 Bft)
06/01/2012 14:50 9,4 C 75 % 1027,8 hPa 0,0 mm 4,3 km/h (1 Bft) N-NO 337 2 min 0 W/m 5,2 C 9,4 C 7,2 km/h (2 Bft)
06/01/2012 15:00 9,3 C 75 % 1027,9 hPa 0,0 mm 2,5 km/h (1 Bft) NO 315 2 min 0 W/m 5,1 C 9,3 C 4,3 km/h (1 Bft)
06/01/2012 15:10 9,1 C 75 % 1027,9 hPa 0,0 mm 5,8 km/h (2 Bft) NE 45 2 min 0 W/m 4,9 C 8,5 C 6,5 km/h (2 Bft)
06/01/2012 15:20 8,8 C 75 % 1027,9 hPa 0,0 mm 3,2 km/h (1 Bft) NO 315 2 min 0 W/m 4,6 C 8,8 C 12,2 km/h (2 Bft)
06/01/2012 15:30 8,4 C 75 % 1028,0 hPa 0,0 mm 0,7 km/h (0 Bft) N-NE 22 2 min 0 W/m 4,2 C 8,4 C 3,6 km/h (1 Bft)
06/01/2012 15:40 7,9 C 75 % 1028,3 hPa 0,0 mm 5,0 km/h (1 Bft) N-NO 337 2 min 0 W/m 3,7 C 7,4 C 11,5 km/h (2 Bft)
06/01/2012 15:50 7,8 C 77 % 1028,3 hPa 0,0 mm 5,8 km/h (2 Bft) N-NO 337 2 min 0 W/m 4,0 C 7,0 C 6,5 km/h (2 Bft)
06/01/2012 16:00 7,9 C 77 % 1028,4 hPa 0,0 mm 0,7 km/h (0 Bft) N 360 2 min 0 W/m 4,1 C 7,9 C 4,0 km/h (1 Bft)
06/01/2012 16:10 7,9 C 77 % 1028,4 hPa 0,0 mm 0,0 km/h (0 Bft) NE 45 2 min 0 W/m 4,1 C 7,9 C 0,0 km/h (0 Bft)
06/01/2012 16:20 8,0 C 77 % 1028,4 hPa 0,0 mm 0,4 km/h (0 Bft) N-NE 22 2 min 0 W/m 4,2 C 8,0 C 0,4 km/h (0 Bft)
06/01/2012 16:30 7,8 C 77 % 1028,5 hPa 0,0 mm 0,0 km/h (0 Bft) N-NO 337 2 min 0 W/m 4,0 C 7,8 C 0,0 km/h (0 Bft)
06/01/2012 16:40 7,7 C 77 % 1028,5 hPa 0,0 mm 1,1 km/h (1 Bft) NO 315 2 min 0 W/m 3,9 C 7,7 C 4,0 km/h (1 Bft)
06/01/2012 16:50 7,4 C 77 % 1028,5 hPa 0,0 mm 2,9 km/h (1 Bft) NO 315 2 min 0 W/m 3,6 C 7,4 C 6,5 km/h (2 Bft)
06/01/2012 17:00 7,1 C 77 % 1028,5 hPa 0,0 mm 0,0 km/h (0 Bft) NO 315 2 min 0 W/m 3,3 C 7,1 C 0,0 km/h (0 Bft)
06/01/2012 17:10 6,6 C 78 % 1028,7 hPa 0,0 mm 0,0 km/h (0 Bft) NO 315 2 min 0 W/m 3,0 C 6,6 C 0,0 km/h (0 Bft)
06/01/2012 17:20 6,1 C 79 % 1028,7 hPa 0,0 mm 0,0 km/h (0 Bft) NO 315 0 min 0 W/m 2,7 C 6,1 C 0,0 km/h (0 Bft)
06/01/2012 17:30 5,5 C 80 % 1028,8 hPa 0,0 mm 0,0 km/h (0 Bft) NO 315 0 min 0 W/m 2,3 C 5,5 C 0,0 km/h (0 Bft)
06/01/2012 17:40 5,0 C 80 % 1028,7 hPa 0,0 mm 0,0 km/h (0 Bft) NO 315 0 min 0 W/m 1,8 C 5,0 C 0,0 km/h (0 Bft)
06/01/2012 17:50 4,5 C 81 % 1028,7 hPa 0,0 mm 0,0 km/h (0 Bft) NO 315 0 min 0 W/m 1,5 C 4,5 C 0,0 km/h (0 Bft)
06/01/2012 18:00 4,1 C 83 % 1028,8 hPa 0,0 mm 0,0 km/h (0 Bft) NO 315 0 min 0 W/m 1,5 C 4,1 C 0,0 km/h (0 Bft)
06/01/2012 18:10 3,8 C 83 % 1028,9 hPa 0,0 mm 0,0 km/h (0 Bft) NO 315 0 min 0 W/m 1,2 C 3,8 C 0,0 km/h (0 Bft)
06/01/2012 18:20 3,4 C 84 % 1028,8 hPa 0,0 mm 0,0 km/h (0 Bft) NO 315 0 min 0 W/m 1,0 C 3,4 C 0,0 km/h (0 Bft)
06/01/2012 18:30 3,1 C 85 % 1029,0 hPa 0,0 mm 0,0 km/h (0 Bft) NO 315 0 min 0 W/m 0,8 C 3,1 C 0,0 km/h (0 Bft)
06/01/2012 18:40 2,9 C 86 % 1029,1 hPa 0,0 mm 0,0 km/h (0 Bft) NO 315 0 min 0 W/m 0,8 C 2,9 C 0,0 km/h (0 Bft)
06/01/2012 18:50 3,1 C 87 % 1029,0 hPa 0,0 mm 0,0 km/h (0 Bft) O 270 0 min 0 W/m 1,2 C 3,1 C 0,0 km/h (0 Bft)
06/01/2012 19:00 3,2 C 88 % 1029,0 hPa 0,0 mm 0,0 km/h (0 Bft) O-SO 247 0 min 0 W/m 1,4 C 3,2 C 0,0 km/h (0 Bft)
06/01/2012 19:10 3,3 C 88 % 1029,0 hPa 0,0 mm 0,0 km/h (0 Bft) O-SO 247 0 min 0 W/m 1,5 C 3,3 C 0,0 km/h (0 Bft)
06/01/2012 19:20 3,3 C 88 % 1029,2 hPa 0,0 mm 0,0 km/h (0 Bft) O-SO 247 0 min 0 W/m 1,5 C 3,3 C 0,0 km/h (0 Bft)
06/01/2012 19:30 3,3 C 88 % 1029,2 hPa 0,0 mm 0,0 km/h (0 Bft) O-SO 247 0 min 0 W/m 1,5 C 3,3 C 0,0 km/h (0 Bft)
06/01/2012 19:40 3,3 C 88 % 1029,2 hPa 0,0 mm 0,0 km/h (0 Bft) O-NO 292 0 min 0 W/m 1,5 C 3,3 C 0,0 km/h (0 Bft)
06/01/2012 19:50 3,4 C 88 % 1029,5 hPa 0,0 mm 0,0 km/h (0 Bft) O 270 0 min 0 W/m 1,6 C 3,4 C 0,0 km/h (0 Bft)
06/01/2012 20:00 3,4 C 88 % 1029,3 hPa 0,0 mm 0,0 km/h (0 Bft) O 270 0 min 0 W/m 1,6 C 3,4 C 0,0 km/h (0 Bft)
06/01/2012 20:10 3,3 C 88 % 1029,5 hPa 0,0 mm 0,0 km/h (0 Bft) O 270 0 min 0 W/m 1,5 C 3,3 C 0,0 km/h (0 Bft)
06/01/2012 20:20 3,1 C 88 % 1029,4 hPa 0,0 mm 0,0 km/h (0 Bft) S-SO 202 0 min 0 W/m 1,3 C 3,1 C 0,0 km/h (0 Bft)
06/01/2012 20:30 2,9 C 88 % 1029,4 hPa 0,0 mm 0,0 km/h (0 Bft) S-SO 202 0 min 0 W/m 1,1 C 2,9 C 0,0 km/h (0 Bft)
06/01/2012 20:40 2,7 C 88 % 1029,5 hPa 0,0 mm 0,0 km/h (0 Bft) S-SO 202 0 min 0 W/m 0,9 C 2,7 C 0,0 km/h (0 Bft)
06/01/2012 20:50 2,4 C 88 % 1029,5 hPa 0,0 mm 0,0 km/h (0 Bft) S-SO 202 0 min 0 W/m 0,6 C 2,4 C 0,0 km/h (0 Bft)
06/01/2012 21:00 2,2 C 89 % 1029,5 hPa 0,0 mm 0,0 km/h (0 Bft) S-SO 202 0 min 0 W/m 0,6 C 2,2 C 0,0 km/h (0 Bft)
06/01/2012 21:10 2,0 C 89 % 1029,4 hPa 0,0 mm 0,0 km/h (0 Bft) S-SO 202 0 min 0 W/m 0,4 C 2,0 C 0,0 km/h (0 Bft)
06/01/2012 21:20 1,8 C 89 % 1029,4 hPa 0,0 mm 0,0 km/h (0 Bft) S-SO 202 0 min 0 W/m 0,2 C 1,8 C 0,0 km/h (0 Bft)
06/01/2012 21:30 1,6 C 89 % 1029,4 hPa 0,0 mm 0,0 km/h (0 Bft) S-SO 202 0 min 0 W/m -0,0 C 1,6 C 0,0 km/h (0 Bft)
06/01/2012 21:40 1,4 C 89 % 1029,4 hPa 0,0 mm 0,0 km/h (0 Bft) O-SO 247 0 min 0 W/m -0,2 C 1,4 C 0,0 km/h (0 Bft)
06/01/2012 21:50 1,3 C 90 % 1029,3 hPa 0,0 mm 0,0 km/h (0 Bft) SO 225 0 min 0 W/m -0,2 C 1,3 C 0,0 km/h (0 Bft)
06/01/2012 22:00 1,3 C 90 % 1029,3 hPa 0,0 mm 0,0 km/h (0 Bft) SO 225 0 min 0 W/m -0,2 C 1,3 C 0,0 km/h (0 Bft)
06/01/2012 22:10 1,4 C 91 % 1029,2 hPa 0,0 mm 0,0 km/h (0 Bft) SO 225 0 min 0 W/m 0,1 C 1,4 C 0,0 km/h (0 Bft)
06/01/2012 22:20 1,3 C 91 % 1029,2 hPa 0,0 mm 0,0 km/h (0 Bft) S-SO 202 0 min 0 W/m -0,0 C 1,3 C 0,0 km/h (0 Bft)
06/01/2012 22:30 1,1 C 92 % 1029,4 hPa 0,0 mm 0,0 km/h (0 Bft) S-SO 202 0 min 0 W/m -0,1 C 1,1 C 0,0 km/h (0 Bft)
06/01/2012 22:40 1,2 C 92 % 1029,5 hPa 0,0 mm 0,0 km/h (0 Bft) S-SO 202 0 min 0 W/m 0,0 C 1,2 C 0,0 km/h (0 Bft)
06/01/2012 22:50 1,3 C 92 % 1029,6 hPa 0,0 mm 0,0 km/h (0 Bft) S-SO 202 0 min 0 W/m 0,1 C 1,3 C 0,0 km/h (0 Bft)
06/01/2012 23:00 1,2 C 92 % 1029,6 hPa 0,0 mm 0,0 km/h (0 Bft) S-SO 202 0 min 0 W/m 0,0 C 1,2 C 0,0 km/h (0 Bft)
06/01/2012 23:10 0,9 C 92 % 1029,6 hPa 0,0 mm 0,0 km/h (0 Bft) S-SO 202 0 min 0 W/m -0,2 C 0,9 C 0,0 km/h (0 Bft)
06/01/2012 23:20 0,8 C 91 % 1029,6 hPa 0,0 mm 0,0 km/h (0 Bft) S-SO 202 0 min 0 W/m -0,5 C 0,8 C 0,0 km/h (0 Bft)
06/01/2012 23:30 0,8 C 92 % 1029,6 hPa 0,0 mm 0,0 km/h (0 Bft) S-SO 202 0 min 0 W/m -0,3 C 0,8 C 0,0 km/h (0 Bft)
06/01/2012 23:40 0,6 C 92 % 1029,6 hPa 0,0 mm 0,0 km/h (0 Bft) S-SO 202 0 min 0 W/m -0,5 C 0,6 C 0,0 km/h (0 Bft)
06/01/2012 23:50 0,8 C 92 % 1029,7 hPa 0,0 mm 0,0 km/h (0 Bft) SO 225 0 min 0 W/m -0,3 C 0,8 C 0,0 km/h (0 Bft)
_ Min-Heure 23:40 15:40 00:00 - 23:50 - - - - 23:40 23:40 23:50
Minimum _ 0,6 C 75 % 1020,6 hPa - 0,0 km/h (0 Bft) - - - - -0,5 C 0,6 C 0,0 km/h (0 Bft)
_ Max-Heure 13:10 09:50 23:50 23:50 11:10 - - 17:10 23:50 11:40 13:10 11:00
Maximum _ 10,3 C 95 % 1029,7 hPa 0,0 mm 11,5 km/h
NO (2 Bft)
- - 2 min 0 W/m 6,6 C 10,3 C 15,5 km/h
NO (3 Bft)
Moyenne _ 5,1 C 87 % 1026,4 hPa #0,0 mm 2,1 km/h (1 Bft) NO - #1:42 h 0 W/m 3,0 C 4,8 C 4,1 km/h (1 Bft)
Saint Bonnet de Bellac- Haute Vienne - France